sensor_id;sensor_type;location;lat;lon;timestamp;pressure;altitude;pressure_sealevel;temperature;humidity
78825;BME280;68176;45.554;10.220;2023-03-24T00:00:33;99889.47;;;18.70;43.14
78825;BME280;68176;45.554;10.220;2023-03-24T00:03:03;99886.19;;;18.68;42.93
78825;BME280;68176;45.554;10.220;2023-03-24T00:05:33;99887.19;;;18.67;43.25
78825;BME280;68176;45.554;10.220;2023-03-24T00:08:03;99896.81;;;18.68;42.99
78825;BME280;68176;45.554;10.220;2023-03-24T00:10:33;99902.97;;;18.69;43.09
78825;BME280;68176;45.554;10.220;2023-03-24T00:13:03;99897.19;;;18.65;43.03
78825;BME280;68176;45.554;10.220;2023-03-24T00:15:33;99899.84;;;18.65;43.05
78825;BME280;68176;45.554;10.220;2023-03-24T00:18:03;99903.03;;;18.60;43.20
78825;BME280;68176;45.554;10.220;2023-03-24T00:20:33;99904.47;;;18.63;43.18
78825;BME280;68176;45.554;10.220;2023-03-24T00:23:03;99904.84;;;18.60;43.16
78825;BME280;68176;45.554;10.220;2023-03-24T00:25:33;99896.25;;;18.58;43.11
78825;BME280;68176;45.554;10.220;2023-03-24T00:28:03;99882.97;;;18.58;43.33
78825;BME280;68176;45.554;10.220;2023-03-24T00:30:34;99890.09;;;18.57;43.45
78825;BME280;68176;45.554;10.220;2023-03-24T00:33:03;99890.31;;;18.56;43.19
78825;BME280;68176;45.554;10.220;2023-03-24T00:35:33;99885.16;;;18.54;43.33
78825;BME280;68176;45.554;10.220;2023-03-24T00:38:03;99880.69;;;18.55;43.14
78825;BME280;68176;45.554;10.220;2023-03-24T00:40:33;99877.38;;;18.53;43.58
78825;BME280;68176;45.554;10.220;2023-03-24T00:43:03;99874.72;;;18.53;43.33
78825;BME280;68176;45.554;10.220;2023-03-24T00:45:33;99874.78;;;18.45;43.46
78825;BME280;68176;45.554;10.220;2023-03-24T00:48:03;99874.41;;;18.48;43.51
78825;BME280;68176;45.554;10.220;2023-03-24T00:50:33;99875.41;;;18.47;43.44
78825;BME280;68176;45.554;10.220;2023-03-24T00:53:03;99869.47;;;18.45;43.56
78825;BME280;68176;45.554;10.220;2023-03-24T00:55:33;99875.59;;;18.45;43.58
78825;BME280;68176;45.554;10.220;2023-03-24T00:58:03;99868.81;;;18.43;43.39
78825;BME280;68176;45.554;10.220;2023-03-24T01:00:33;99866.16;;;18.43;43.46
78825;BME280;68176;45.554;10.220;2023-03-24T01:03:03;99875.13;;;18.42;43.53
78825;BME280;68176;45.554;10.220;2023-03-24T01:05:33;99875.13;;;18.42;43.60
78825;BME280;68176;45.554;10.220;2023-03-24T01:08:04;99874.50;;;18.40;43.56
78825;BME280;68176;45.554;10.220;2023-03-24T01:10:36;99870.19;;;18.39;43.67
78825;BME280;68176;45.554;10.220;2023-03-24T01:13:07;99863.94;;;18.32;43.83
78825;BME280;68176;45.554;10.220;2023-03-24T01:15:33;99869.09;;;18.33;43.57
78825;BME280;68176;45.554;10.220;2023-03-24T01:18:04;99854.97;;;18.33;43.76
78825;BME280;68176;45.554;10.220;2023-03-24T01:20:34;99868.44;;;18.31;43.41
78825;BME280;68176;45.554;10.220;2023-03-24T01:23:03;99862.31;;;18.31;43.62
78825;BME280;68176;45.554;10.220;2023-03-24T01:25:35;99861.50;;;18.30;43.81
78825;BME280;68176;45.554;10.220;2023-03-24T01:28:04;99861.66;;;18.29;43.69
78825;BME280;68176;45.554;10.220;2023-03-24T01:30:34;99864.50;;;18.27;43.70
78825;BME280;68176;45.554;10.220;2023-03-24T01:33:03;99855.72;;;18.27;43.77
78825;BME280;68176;45.554;10.220;2023-03-24T01:35:35;99847.91;;;18.25;43.63
78825;BME280;68176;45.554;10.220;2023-03-24T01:38:08;99849.78;;;18.25;43.78
78825;BME280;68176;45.554;10.220;2023-03-24T01:40:36;99854.41;;;18.23;43.82
78825;BME280;68176;45.554;10.220;2023-03-24T01:43:05;99855.41;;;18.22;43.91
78825;BME280;68176;45.554;10.220;2023-03-24T01:45:57;99851.13;;;18.21;43.82
78825;BME280;68176;45.554;10.220;2023-03-24T01:51:05;99844.88;;;18.13;43.96
78825;BME280;68176;45.554;10.220;2023-03-24T01:53:33;99846.91;;;18.11;44.01
78825;BME280;68176;45.554;10.220;2023-03-24T01:56:01;99840.94;;;18.09;43.90
78825;BME280;68176;45.554;10.220;2023-03-24T01:58:27;99842.31;;;18.05;44.20
78825;BME280;68176;45.554;10.220;2023-03-24T02:00:56;99836.66;;;18.08;44.05
78825;BME280;68176;45.554;10.220;2023-03-24T02:03:26;99826.03;;;18.08;43.71
78825;BME280;68176;45.554;10.220;2023-03-24T02:05:56;99831.34;;;18.08;43.95
78825;BME280;68176;45.554;10.220;2023-03-24T02:11:13;99818.13;;;18.00;44.15
78825;BME280;68176;45.554;10.220;2023-03-24T02:13:38;99820.31;;;17.97;44.28
78825;BME280;68176;45.554;10.220;2023-03-24T02:19:24;99809.69;;;17.97;44.11
78825;BME280;68176;45.554;10.220;2023-03-24T02:27:51;99806.13;;;17.90;44.19
78825;BME280;68176;45.554;10.220;2023-03-24T02:30:52;99806.94;;;17.90;44.37
78825;BME280;68176;45.554;10.220;2023-03-24T02:34:00;99806.31;;;17.88;44.35
78825;BME280;68176;45.554;10.220;2023-03-24T02:46:03;99802.06;;;17.79;44.50
78825;BME280;68176;45.554;10.220;2023-03-24T02:48:36;99802.91;;;17.80;44.49
78825;BME280;68176;45.554;10.220;2023-03-24T02:51:16;99803.06;;;17.78;44.63
78825;BME280;68176;45.554;10.220;2023-03-24T02:59:02;99803.63;;;17.74;44.49
78825;BME280;68176;45.554;10.220;2023-03-24T03:01:38;99794.00;;;17.73;44.74
78825;BME280;68176;45.554;10.220;2023-03-24T03:04:15;99787.88;;;17.72;44.43
78825;BME280;68176;45.554;10.220;2023-03-24T03:06:46;99790.72;;;17.71;44.68
78825;BME280;68176;45.554;10.220;2023-03-24T03:09:16;99783.94;;;17.68;44.68
78825;BME280;68176;45.554;10.220;2023-03-24T03:11:46;99785.94;;;17.66;44.61
78825;BME280;68176;45.554;10.220;2023-03-24T03:14:17;99781.63;;;17.65;44.61
78825;BME280;68176;45.554;10.220;2023-03-24T03:16:48;99775.53;;;17.65;44.73
78825;BME280;68176;45.554;10.220;2023-03-24T03:19:31;99774.69;;;17.64;44.78
78825;BME280;68176;45.554;10.220;2023-03-24T03:21:58;99766.06;;;17.62;44.87
78825;BME280;68176;45.554;10.220;2023-03-24T03:24:39;99765.28;;;17.62;44.93
78825;BME280;68176;45.554;10.220;2023-03-24T03:27:16;99775.06;;;17.61;44.84
78825;BME280;68176;45.554;10.220;2023-03-24T03:29:52;99771.56;;;17.61;44.94
78825;BME280;68176;45.554;10.220;2023-03-24T03:32:24;99766.63;;;17.57;44.96
78825;BME280;68176;45.554;10.220;2023-03-24T03:40:08;99769.44;;;17.56;44.82
78825;BME280;68176;45.554;10.220;2023-03-24T03:42:36;99768.78;;;17.54;44.85
78825;BME280;68176;45.554;10.220;2023-03-24T03:45:02;99766.28;;;17.52;44.82
78825;BME280;68176;45.554;10.220;2023-03-24T03:47:30;99767.63;;;17.56;44.75
78825;BME280;68176;45.554;10.220;2023-03-24T03:50:01;99764.81;;;17.58;44.79
78825;BME280;68176;45.554;10.220;2023-03-24T03:52:30;99760.34;;;17.58;44.61
78825;BME280;68176;45.554;10.220;2023-03-24T03:55:01;99757.84;;;17.57;44.78
78825;BME280;68176;45.554;10.220;2023-03-24T03:57:30;99757.00;;;17.56;45.10
78825;BME280;68176;45.554;10.220;2023-03-24T04:00:02;99763.16;;;17.57;44.80
78825;BME280;68176;45.554;10.220;2023-03-24T04:05:38;99758.53;;;17.51;44.94
78825;BME280;68176;45.554;10.220;2023-03-24T04:08:41;99748.09;;;17.49;44.85
78825;BME280;68176;45.554;10.220;2023-03-24T04:16:52;99751.94;;;17.47;44.97
78825;BME280;68176;45.554;10.220;2023-03-24T04:24:55;99745.31;;;17.43;45.05
78825;BME280;68176;45.554;10.220;2023-03-24T04:32:40;99743.22;;;17.38;45.09
78825;BME280;68176;45.554;10.220;2023-03-24T04:35:20;99734.78;;;17.35;45.07
78825;BME280;68176;45.554;10.220;2023-03-24T04:37:57;99743.59;;;17.35;45.09
78825;BME280;68176;45.554;10.220;2023-03-24T04:40:27;99748.06;;;17.35;45.16
78825;BME280;68176;45.554;10.220;2023-03-24T04:42:55;99739.47;;;17.33;45.33
78825;BME280;68176;45.554;10.220;2023-03-24T04:45:22;99746.75;;;17.31;45.22
78825;BME280;68176;45.554;10.220;2023-03-24T04:47:53;99741.91;;;17.34;45.13
78825;BME280;68176;45.554;10.220;2023-03-24T04:50:57;99748.06;;;17.35;45.09
78825;BME280;68176;45.554;10.220;2023-03-24T04:53:24;99746.75;;;17.31;45.21
78825;BME280;68176;45.554;10.220;2023-03-24T04:56:00;99741.81;;;17.28;45.40
78825;BME280;68176;45.554;10.220;2023-03-24T04:58:27;99743.81;;;17.26;45.32
78825;BME280;68176;45.554;10.220;2023-03-24T05:00:52;99756.06;;;17.27;45.46
78825;BME280;68176;45.554;10.220;2023-03-24T05:03:21;99753.88;;;17.30;45.00
78825;BME280;68176;45.554;10.220;2023-03-24T05:05:51;99771.28;;;17.33;45.16
78825;BME280;68176;45.554;10.220;2023-03-24T05:08:21;99767.97;;;17.31;45.17
78825;BME280;68176;45.554;10.220;2023-03-24T05:10:50;99766.31;;;17.30;45.07
78825;BME280;68176;45.554;10.220;2023-03-24T05:13:20;99780.22;;;17.32;45.09
78825;BME280;68176;45.554;10.220;2023-03-24T05:15:54;99774.09;;;17.31;45.04
78825;BME280;68176;45.554;10.220;2023-03-24T05:18:20;99776.94;;;17.30;45.13
78825;BME280;68176;45.554;10.220;2023-03-24T05:20:51;99774.28;;;17.30;44.87
78825;BME280;68176;45.554;10.220;2023-03-24T05:23:21;99774.91;;;17.32;45.11
78825;BME280;68176;45.554;10.220;2023-03-24T05:25:50;99776.09;;;17.29;45.12
78825;BME280;68176;45.554;10.220;2023-03-24T05:28:21;99783.84;;;17.31;45.10
78825;BME280;68176;45.554;10.220;2023-03-24T05:30:51;99777.72;;;17.30;45.12
78825;BME280;68176;45.554;10.220;2023-03-24T05:33:21;99783.03;;;17.30;45.10
78825;BME280;68176;45.554;10.220;2023-03-24T05:35:51;99781.03;;;17.32;45.07
78825;BME280;68176;45.554;10.220;2023-03-24T05:38:21;99782.22;;;17.30;45.05
78825;BME280;68176;45.554;10.220;2023-03-24T05:40:51;99778.56;;;17.31;45.05
78825;BME280;68176;45.554;10.220;2023-03-24T05:43:21;99785.53;;;17.32;45.03
78825;BME280;68176;45.554;10.220;2023-03-24T05:45:51;99777.56;;;17.32;44.89
78825;BME280;68176;45.554;10.220;2023-03-24T05:48:22;99778.41;;;17.32;45.19
78825;BME280;68176;45.554;10.220;2023-03-24T05:50:52;99789.16;;;17.31;45.04
78825;BME280;68176;45.554;10.220;2023-03-24T05:53:21;99783.03;;;17.30;44.93
78825;BME280;68176;45.554;10.220;2023-03-24T05:55:51;99795.28;;;17.31;44.87
78825;BME280;68176;45.554;10.220;2023-03-24T05:58:21;99790.97;;;17.30;44.88
78825;BME280;68176;45.554;10.220;2023-03-24T06:00:51;99798.13;;;17.30;44.96
78825;BME280;68176;45.554;10.220;2023-03-24T06:03:21;99797.13;;;17.31;44.82
78825;BME280;68176;45.554;10.220;2023-03-24T06:05:51;99796.47;;;17.29;45.01
78825;BME280;68176;45.554;10.220;2023-03-24T06:08:21;99800.78;;;17.30;45.18
78825;BME280;68176;45.554;10.220;2023-03-24T06:10:51;99794.19;;;17.26;45.06
78825;BME280;68176;45.554;10.220;2023-03-24T06:13:21;99788.53;;;17.29;44.83
78825;BME280;68176;45.554;10.220;2023-03-24T06:15:51;99800.13;;;17.28;44.96
78825;BME280;68176;45.554;10.220;2023-03-24T06:18:21;99805.25;;;17.29;45.10
78825;BME280;68176;45.554;10.220;2023-03-24T06:20:52;99809.53;;;17.30;44.86
78825;BME280;68176;45.554;10.220;2023-03-24T06:23:25;99807.72;;;17.31;45.06
78825;BME280;68176;45.554;10.220;2023-03-24T06:25:52;99804.13;;;17.24;45.21
78825;BME280;68176;45.554;10.220;2023-03-24T06:28:21;99807.06;;;17.29;45.31
78825;BME280;68176;45.554;10.220;2023-03-24T06:30:51;99816.69;;;17.30;45.18
78825;BME280;68176;45.554;10.220;2023-03-24T06:33:21;99801.78;;;17.29;45.05
78825;BME280;68176;45.554;10.220;2023-03-24T06:35:51;99801.78;;;17.29;45.08
78825;BME280;68176;45.554;10.220;2023-03-24T06:38:21;99808.06;;;17.28;45.15
78825;BME280;68176;45.554;10.220;2023-03-24T06:40:51;99814.03;;;17.30;45.16
78825;BME280;68176;45.554;10.220;2023-03-24T06:43:21;99812.38;;;17.29;44.79
78825;BME280;68176;45.554;10.220;2023-03-24T06:45:51;99811.53;;;17.28;45.14
78825;BME280;68176;45.554;10.220;2023-03-24T06:48:21;99809.44;;;17.24;45.30
78825;BME280;68176;45.554;10.220;2023-03-24T06:50:52;99812.38;;;17.29;45.04
78825;BME280;68176;45.554;10.220;2023-03-24T06:53:21;99811.75;;;17.27;44.98
78825;BME280;68176;45.554;10.220;2023-03-24T06:55:51;99817.69;;;17.29;45.08
78825;BME280;68176;45.554;10.220;2023-03-24T06:58:21;99814.75;;;17.24;45.11
78825;BME280;68176;45.554;10.220;2023-03-24T07:00:51;99814.19;;;17.28;45.04
78825;BME280;68176;45.554;10.220;2023-03-24T07:03:21;99816.50;;;17.31;44.93
78825;BME280;68176;45.554;10.220;2023-03-24T07:05:51;99820.81;;;17.32;45.05
78825;BME280;68176;45.554;10.220;2023-03-24T07:08:21;99811.38;;;17.30;45.09
78825;BME280;68176;45.554;10.220;2023-03-24T07:10:51;99817.50;;;17.30;45.02
78825;BME280;68176;45.554;10.220;2023-03-24T07:13:21;99826.94;;;17.33;44.89
78825;BME280;68176;45.554;10.220;2023-03-24T07:15:51;99826.94;;;17.33;44.89
78825;BME280;68176;45.554;10.220;2023-03-24T07:18:21;99831.22;;;17.34;45.00
78825;BME280;68176;45.554;10.220;2023-03-24T07:20:51;99831.22;;;17.34;44.96
78825;BME280;68176;45.554;10.220;2023-03-24T07:23:21;99832.88;;;17.35;45.13
78825;BME280;68176;45.554;10.220;2023-03-24T07:25:52;99828.91;;;17.31;45.18
78825;BME280;68176;45.554;10.220;2023-03-24T07:28:21;99829.28;;;17.28;45.18
78825;BME280;68176;45.554;10.220;2023-03-24T07:30:51;99831.94;;;17.28;45.05
78825;BME280;68176;45.554;10.220;2023-03-24T07:33:21;99828.28;;;17.29;45.16
78825;BME280;68176;45.554;10.220;2023-03-24T07:35:55;99820.97;;;17.31;45.02
78825;BME280;68176;45.554;10.220;2023-03-24T07:38:22;99824.44;;;17.31;45.19
78825;BME280;68176;45.554;10.220;2023-03-24T07:40:51;99820.97;;;17.31;45.10
78825;BME280;68176;45.554;10.220;2023-03-24T07:43:21;99821.63;;;17.33;45.18
78825;BME280;68176;45.554;10.220;2023-03-24T07:45:51;99822.28;;;17.35;45.28
78825;BME280;68176;45.554;10.220;2023-03-24T07:48:21;99824.94;;;17.35;45.06
78825;BME280;68176;45.554;10.220;2023-03-24T07:50:52;99824.09;;;17.34;45.03
78825;BME280;68176;45.554;10.220;2023-03-24T07:53:21;99834.53;;;17.36;45.15
78825;BME280;68176;45.554;10.220;2023-03-24T07:55:51;99823.94;;;17.36;45.09
78825;BME280;68176;45.554;10.220;2023-03-24T07:58:21;99827.41;;;17.36;44.90
78825;BME280;68176;45.554;10.220;2023-03-24T08:00:51;99823.94;;;17.36;45.01
78825;BME280;68176;45.554;10.220;2023-03-24T08:03:22;99818.63;;;17.36;44.98
78825;BME280;68176;45.554;10.220;2023-03-24T08:05:51;99830.88;;;17.37;44.96
78825;BME280;68176;45.554;10.220;2023-03-24T08:08:21;99824.78;;;17.36;44.77
78825;BME280;68176;45.554;10.220;2023-03-24T08:10:51;99839.50;;;17.39;44.93
78825;BME280;68176;45.554;10.220;2023-03-24T08:13:21;99830.44;;;17.33;45.27
78825;BME280;68176;45.554;10.220;2023-03-24T08:15:51;99828.22;;;17.37;45.15
78825;BME280;68176;45.554;10.220;2023-03-24T08:18:22;99828.88;;;17.39;45.05
78825;BME280;68176;45.554;10.220;2023-03-24T08:20:55;99837.47;;;17.41;45.00
78825;BME280;68176;45.554;10.220;2023-03-24T08:23:22;99830.88;;;17.37;45.01
78825;BME280;68176;45.554;10.220;2023-03-24T08:25:51;99840.13;;;17.41;45.07
78825;BME280;68176;45.554;10.220;2023-03-24T08:28:22;99830.16;;;17.43;45.08
78825;BME280;68176;45.554;10.220;2023-03-24T08:30:51;99830.88;;;16.75;51.60
78825;BME280;68176;45.554;10.220;2023-03-24T08:33:21;99833.03;;;16.72;52.33
78825;BME280;68176;45.554;10.220;2023-03-24T08:35:52;99838.78;;;16.83;52.24
78825;BME280;68176;45.554;10.220;2023-03-24T08:38:22;99845.03;;;16.98;51.12
78825;BME280;68176;45.554;10.220;2023-03-24T08:40:54;99839.19;;;17.03;50.70
78825;BME280;68176;45.554;10.220;2023-03-24T08:43:22;99838.97;;;17.13;50.01
78825;BME280;68176;45.554;10.220;2023-03-24T08:45:51;99845.25;;;17.20;49.49
78825;BME280;68176;45.554;10.220;2023-03-24T08:48:21;99838.75;;;17.22;49.12
78825;BME280;68176;45.554;10.220;2023-03-24T08:50:52;99843.34;;;17.28;48.73
78825;BME280;68176;45.554;10.220;2023-03-24T08:53:22;99840.53;;;17.30;48.60
78825;BME280;68176;45.554;10.220;2023-03-24T08:55:52;99832.59;;;17.30;48.38
78825;BME280;68176;45.554;10.220;2023-03-24T08:58:22;99844.47;;;17.34;48.30
78825;BME280;68176;45.554;10.220;2023-03-24T09:00:52;99838.88;;;17.29;48.11
78825;BME280;68176;45.554;10.220;2023-03-24T09:03:22;99848.78;;;17.35;47.81
78825;BME280;68176;45.554;10.220;2023-03-24T09:05:55;99844.13;;;17.37;47.75
78825;BME280;68176;45.554;10.220;2023-03-24T09:08:23;99840.19;;;17.33;47.72
78825;BME280;68176;45.554;10.220;2023-03-24T09:10:51;99833.53;;;17.37;47.52
78825;BME280;68176;45.554;10.220;2023-03-24T09:13:22;99842.97;;;17.39;47.41
78825;BME280;68176;45.554;10.220;2023-03-24T09:15:52;99845.16;;;17.36;47.51
78825;BME280;68176;45.554;10.220;2023-03-24T09:18:22;99848.09;;;17.41;47.23
78825;BME280;68176;45.554;10.220;2023-03-24T09:20:53;99842.44;;;17.44;47.36
78825;BME280;68176;45.554;10.220;2023-03-24T09:23:22;99838.78;;;17.45;47.22
78825;BME280;68176;45.554;10.220;2023-03-24T09:25:52;99842.06;;;17.47;46.92
78825;BME280;68176;45.554;10.220;2023-03-24T09:28:23;99837.78;;;17.46;47.05
78825;BME280;68176;45.554;10.220;2023-03-24T09:31:00;99849.88;;;17.48;47.04
78825;BME280;68176;45.554;10.220;2023-03-24T09:33:26;99860.16;;;17.43;47.33
78825;BME280;68176;45.554;10.220;2023-03-24T09:35:58;99865.66;;;17.42;47.10
78825;BME280;68176;45.554;10.220;2023-03-24T09:38:24;99858.34;;;17.44;47.05
78825;BME280;68176;45.554;10.220;2023-03-24T09:41:00;99865.59;;;17.50;46.83
78825;BME280;68176;45.554;10.220;2023-03-24T09:43:40;99864.31;;;17.46;46.84
78825;BME280;68176;45.554;10.220;2023-03-24T09:46:13;99853.69;;;17.46;47.03
78825;BME280;68176;45.554;10.220;2023-03-24T09:48:49;99857.16;;;17.46;46.81
78825;BME280;68176;45.554;10.220;2023-03-24T09:56:39;99843.75;;;17.48;46.74
78825;BME280;68176;45.554;10.220;2023-03-24T09:59:15;99836.78;;;17.47;46.78
78825;BME280;68176;45.554;10.220;2023-03-24T10:01:41;99832.13;;;17.49;46.93
78825;BME280;68176;45.554;10.220;2023-03-24T10:04:14;99838.25;;;17.49;46.98
78825;BME280;68176;45.554;10.220;2023-03-24T10:06:40;99832.78;;;17.51;47.19
78825;BME280;68176;45.554;10.220;2023-03-24T10:09:10;99829.78;;;17.54;47.03
78825;BME280;68176;45.554;10.220;2023-03-24T10:14:57;99819.81;;;17.56;46.92
78825;BME280;68176;45.554;10.220;2023-03-24T10:20:37;99820.78;;;17.63;46.88
78825;BME280;68176;45.554;10.220;2023-03-24T10:29:05;99829.22;;;17.67;46.90
78825;BME280;68176;45.554;10.220;2023-03-24T10:31:36;99814.13;;;17.67;46.76
78825;BME280;68176;45.554;10.220;2023-03-24T10:34:03;99815.13;;;17.66;46.64
78825;BME280;68176;45.554;10.220;2023-03-24T10:36:29;99825.47;;;17.76;46.48
78825;BME280;68176;45.554;10.220;2023-03-24T10:38:59;99824.28;;;17.78;46.23
78825;BME280;68176;45.554;10.220;2023-03-24T10:41:31;99832.91;;;17.80;46.35
78825;BME280;68176;45.554;10.220;2023-03-24T10:43:59;99831.91;;;17.81;46.51
78825;BME280;68176;45.554;10.220;2023-03-24T10:46:30;99817.81;;;17.81;46.43
78825;BME280;68176;45.554;10.220;2023-03-24T10:49:13;99817.91;;;17.87;46.29
78825;BME280;68176;45.554;10.220;2023-03-24T10:51:43;99810.66;;;17.81;46.25
78825;BME280;68176;45.554;10.220;2023-03-24T10:57:02;99807.66;;;17.84;46.27
78825;BME280;68176;45.554;10.220;2023-03-24T11:02:17;99805.94;;;17.91;46.22
78825;BME280;68176;45.554;10.220;2023-03-24T11:07:37;99808.59;;;17.91;46.07
78825;BME280;68176;45.554;10.220;2023-03-24T11:10:15;99795.97;;;17.93;46.22
78825;BME280;68176;45.554;10.220;2023-03-24T11:12:59;99805.22;;;17.97;45.92
78825;BME280;68176;45.554;10.220;2023-03-24T11:15:33;99781.34;;;17.97;46.05
78825;BME280;68176;45.554;10.220;2023-03-24T11:18:11;99770.38;;;18.00;46.09
78825;BME280;68176;45.554;10.220;2023-03-24T11:20:57;99771.19;;;18.01;46.55
78825;BME280;68176;45.554;10.220;2023-03-24T11:23:38;99779.97;;;18.01;46.53
78825;BME280;68176;45.554;10.220;2023-03-24T11:31:09;99789.97;;;17.99;46.64
78825;BME280;68176;45.554;10.220;2023-03-24T11:33:42;99772.56;;;17.97;46.31
78825;BME280;68176;45.554;10.220;2023-03-24T11:39:10;99770.81;;;18.19;45.92
78825;BME280;68176;45.554;10.220;2023-03-24T11:41:37;99766.50;;;18.47;45.27
78825;BME280;68176;45.554;10.220;2023-03-24T11:44:16;99775.06;;;18.57;44.08
78825;BME280;68176;45.554;10.220;2023-03-24T11:46:48;99766.63;;;18.68;44.47
78825;BME280;68176;45.554;10.220;2023-03-24T11:49:18;99767.88;;;18.87;44.27
78825;BME280;68176;45.554;10.220;2023-03-24T11:51:47;99768.16;;;18.48;43.77
78825;BME280;68176;45.554;10.220;2023-03-24T11:54:17;99763.22;;;18.45;44.61
78825;BME280;68176;45.554;10.220;2023-03-24T11:56:53;99763.75;;;18.84;43.92
78825;BME280;68176;45.554;10.220;2023-03-24T12:04:55;99751.53;;;19.26;43.34
78825;BME280;68176;45.554;10.220;2023-03-24T12:07:55;99740.94;;;19.11;42.87
78825;BME280;68176;45.554;10.220;2023-03-24T12:13:35;99733.00;;;18.75;43.31
78825;BME280;68176;45.554;10.220;2023-03-24T12:16:09;99738.72;;;19.14;42.43
78825;BME280;68176;45.554;10.220;2023-03-24T12:23:57;99725.56;;;19.28;40.86
78825;BME280;68176;45.554;10.220;2023-03-24T12:26:30;99725.69;;;19.19;40.98
78825;BME280;68176;45.554;10.220;2023-03-24T12:29:37;99717.47;;;19.14;40.89
78825;BME280;68176;45.554;10.220;2023-03-24T12:38:04;99705.47;;;19.04;41.72
78825;BME280;68176;45.554;10.220;2023-03-24T12:40:53;99701.13;;;19.17;40.19
78825;BME280;68176;45.554;10.220;2023-03-24T12:46:36;99692.75;;;19.42;40.04
78825;BME280;68176;45.554;10.220;2023-03-24T12:52:08;99688.72;;;19.46;40.60
78825;BME280;68176;45.554;10.220;2023-03-24T12:54:50;99674.16;;;19.42;40.28
78825;BME280;68176;45.554;10.220;2023-03-24T12:57:23;99683.88;;;19.56;40.37
78825;BME280;68176;45.554;10.220;2023-03-24T12:59:59;99675.91;;;19.90;39.08
78825;BME280;68176;45.554;10.220;2023-03-24T13:02:35;99669.03;;;20.02;39.24
78825;BME280;68176;45.554;10.220;2023-03-24T13:05:04;99662.97;;;20.21;39.65
78825;BME280;68176;45.554;10.220;2023-03-24T13:07:34;99665.50;;;20.30;38.50
78825;BME280;68176;45.554;10.220;2023-03-24T13:10:06;99669.78;;;19.90;39.39
78825;BME280;68176;45.554;10.220;2023-03-24T13:12:49;99669.13;;;19.81;39.87
78825;BME280;68176;45.554;10.220;2023-03-24T13:15:21;99671.06;;;20.00;39.61
78825;BME280;68176;45.554;10.220;2023-03-24T13:17:52;99663.66;;;20.30;38.64
78825;BME280;68176;45.554;10.220;2023-03-24T13:20:25;99661.06;;;20.50;38.16
78825;BME280;68176;45.554;10.220;2023-03-24T13:22:53;99653.56;;;20.93;37.74
78825;BME280;68176;45.554;10.220;2023-03-24T13:25:44;99659.09;;;20.78;37.00
78825;BME280;68176;45.554;10.220;2023-03-24T13:28:20;99651.69;;;20.67;37.58
78825;BME280;68176;45.554;10.220;2023-03-24T13:30:47;99654.06;;;20.36;38.41
78825;BME280;68176;45.554;10.220;2023-03-24T13:33:16;99647.59;;;20.84;37.39
78825;BME280;68176;45.554;10.220;2023-03-24T13:36:08;99646.00;;;20.83;37.34
78825;BME280;68176;45.554;10.220;2023-03-24T13:38:50;99651.34;;;21.62;36.91
78825;BME280;68176;45.554;10.220;2023-03-24T13:41:21;99638.75;;;24.67;30.67
78825;BME280;68176;45.554;10.220;2023-03-24T13:44:01;99616.47;;;28.29;24.42
78825;BME280;68176;45.554;10.220;2023-03-24T13:46:28;99616.59;;;29.67;21.75
78825;BME280;68176;45.554;10.220;2023-03-24T13:48:56;99607.50;;;29.36;20.67
78825;BME280;68176;45.554;10.220;2023-03-24T13:51:32;99623.25;;;30.63;20.01
78825;BME280;68176;45.554;10.220;2023-03-24T13:54:03;99617.97;;;30.26;20.22
78825;BME280;68176;45.554;10.220;2023-03-24T13:56:33;99618.47;;;33.08;16.50
78825;BME280;68176;45.554;10.220;2023-03-24T14:01:43;99615.44;;;34.94;15.96
78825;BME280;68176;45.554;10.220;2023-03-24T14:04:38;99608.06;;;37.30;13.57
78825;BME280;68176;45.554;10.220;2023-03-24T14:17:54;99586.25;;;38.86;11.92
78825;BME280;68176;45.554;10.220;2023-03-24T14:20:34;99576.50;;;39.98;10.24
78825;BME280;68176;45.554;10.220;2023-03-24T14:23:02;99572.97;;;35.94;14.35
78825;BME280;68176;45.554;10.220;2023-03-24T14:25:31;99573.41;;;30.44;19.98
78825;BME280;68176;45.554;10.220;2023-03-24T14:28:19;99571.56;;;31.20;19.14
78825;BME280;68176;45.554;10.220;2023-03-24T14:33:34;99565.69;;;29.53;20.33
78825;BME280;68176;45.554;10.220;2023-03-24T14:36:04;99560.16;;;28.11;22.94
78825;BME280;68176;45.554;10.220;2023-03-24T14:38:41;99565.50;;;28.59;22.14
78825;BME280;68176;45.554;10.220;2023-03-24T14:41:13;99575.78;;;31.77;19.01
78825;BME280;68176;45.554;10.220;2023-03-24T14:46:34;99556.19;;;31.85;18.89
78825;BME280;68176;45.554;10.220;2023-03-24T14:51:43;99573.44;;;25.26;27.21
78825;BME280;68176;45.554;10.220;2023-03-24T14:54:16;99571.41;;;23.43;29.76
78825;BME280;68176;45.554;10.220;2023-03-24T14:56:45;99573.09;;;23.37;30.71
78825;BME280;68176;45.554;10.220;2023-03-24T14:59:34;99566.88;;;24.99;28.75
78825;BME280;68176;45.554;10.220;2023-03-24T15:07:44;99574.50;;;21.90;33.55
78825;BME280;68176;45.554;10.220;2023-03-24T15:10:18;99575.00;;;22.18;33.85
78825;BME280;68176;45.554;10.220;2023-03-24T15:12:45;99570.53;;;22.06;33.37
78825;BME280;68176;45.554;10.220;2023-03-24T15:15:14;99571.91;;;22.15;33.62
78825;BME280;68176;45.554;10.220;2023-03-24T15:17:42;99570.19;;;21.89;33.51
78825;BME280;68176;45.554;10.220;2023-03-24T15:22:44;99566.03;;;21.16;35.16
78825;BME280;68176;45.554;10.220;2023-03-24T15:25:10;99567.63;;;20.84;36.09
78825;BME280;68176;45.554;10.220;2023-03-24T15:27:38;99559.84;;;21.15;35.54
78825;BME280;68176;45.554;10.220;2023-03-24T15:30:12;99547.56;;;20.82;36.39
78825;BME280;68176;45.554;10.220;2023-03-24T15:32:39;99557.81;;;20.91;36.42
78825;BME280;68176;45.554;10.220;2023-03-24T15:35:11;99551.59;;;20.32;37.31
78825;BME280;68176;45.554;10.220;2023-03-24T15:37:40;99564.34;;;20.56;37.14